Time;durP1;ratioP1;P1;durP2;ratioP2;P2;SDS_P1;SDS_P2;PMS_P1;PMS_P2;Temp;Humidity;BMP_temperature;BMP_pressure;BME280_temperature;BME280_humidity;BME280_pressure;Samples;Min_cycle;Max_cycle;Signal;HPM_P1;HPM_P2
2022/10/08 00:01:33;;;;;;;13.55;6.55;;;;;;;9.74;79.49;100181.44;4946412;28;20076;-93
2022/10/08 00:03:59;;;;;;;14.18;7.68;;;;;;;9.73;79.32;100187.84;4951819;28;20096;-95
2022/10/08 00:06:33;;;;;;;12.73;7.22;;;;;;;9.78;79.34;100182.59;4965891;28;20021;-95
2022/10/08 00:09:03;;;;;;;11.80;7.03;;;;;;;9.59;79.50;100160.47;4966486;28;20036;-92
2022/10/08 00:11:31;;;;;;;11.48;7.45;;;;;;;9.88;79.25;100193.50;4965860;28;20403;-94
2022/10/08 00:13:56;;;;;;;11.02;6.78;;;;;;;9.91;78.95;100186.81;4962231;28;20061;-96
2022/10/08 00:16:26;;;;;;;14.10;6.80;;;;;;;9.92;78.47;100169.63;4946459;28;20030;-95
2022/10/08 00:18:52;;;;;;;12.02;7.05;;;;;;;10.00;79.21;100182.69;4945999;28;20022;-94
2022/10/08 00:21:23;;;;;;;9.73;6.72;;;;;;;9.89;78.60;100167.41;4946527;28;20053;-94
2022/10/08 00:23:48;;;;;;;11.88;6.65;;;;;;;9.99;78.75;100175.66;4946314;28;20026;-94
2022/10/08 00:26:15;;;;;;;12.40;6.88;;;;;;;10.02;78.33;100171.66;4946097;28;20036;-95
2022/10/08 00:28:42;;;;;;;11.05;6.63;;;;;;;10.01;78.07;100178.13;4946267;28;20109;-95
2022/10/08 00:31:12;;;;;;;12.32;7.07;;;;;;;9.99;78.09;100169.47;4945837;28;20038;-95
2022/10/08 00:33:41;;;;;;;10.23;6.35;;;;;;;10.00;77.92;100165.72;4949377;28;20112;-94
2022/10/08 00:36:08;;;;;;;12.52;6.63;;;;;;;10.14;77.58;100160.81;4966031;28;20025;-94
2022/10/08 00:38:34;;;;;;;9.50;6.47;;;;;;;10.22;76.90;100155.81;4966080;28;20121;-94
2022/10/08 00:40:59;;;;;;;17.13;6.68;;;;;;;10.43;76.52;100167.72;4965300;28;20026;-94
2022/10/08 00:43:48;;;;;;;10.32;6.45;;;;;;;10.30;76.79;100157.31;4965856;28;20117;-95
2022/10/08 00:46:24;;;;;;;12.30;5.80;;;;;;;10.61;76.46;100176.59;4967264;28;20037;-95
2022/10/08 00:49:14;;;;;;;15.10;7.00;;;;;;;10.77;74.95;100146.13;4997247;28;20029;-93
2022/10/08 00:51:42;;;;;;;9.57;5.45;;;;;;;10.99;74.08;100150.66;4967223;28;20028;-93
2022/10/08 00:54:08;;;;;;;9.27;6.57;;;;;;;11.13;73.65;100155.41;4965806;28;20372;-93
2022/10/08 00:56:34;;;;;;;8.10;5.88;;;;;;;10.93;74.71;100160.56;4964126;28;20044;-92
2022/10/08 00:59:01;;;;;;;8.65;6.25;;;;;;;10.65;75.04;100146.22;4964164;28;20391;-93
2022/10/08 01:01:28;;;;;;;11.20;6.90;;;;;;;10.54;75.29;100155.22;4965003;28;20077;-94
2022/10/08 02:07:51;;;;;;;15.15;7.85;;;;;;;9.53;79.28;100139.13;4994728;28;20114;-93
2022/10/08 02:10:18;;;;;;;15.32;8.60;;;;;;;9.65;78.73;100132.63;4960523;28;20027;-95
2022/10/08 02:12:44;;;;;;;17.05;8.27;;;;;;;9.61;79.19;100142.22;4965128;28;20026;-93
2022/10/08 02:15:14;;;;;;;12.23;7.97;;;;;;;9.73;78.30;100131.38;4980728;28;20029;-93
2022/10/08 02:17:56;;;;;;;16.85;8.43;;;;;;;9.88;77.95;100134.34;4964875;28;20022;-93
2022/10/08 02:20:31;;;;;;;11.40;7.63;;;;;;;9.69;79.01;100135.63;4980642;28;20029;-95
2022/10/08 02:23:21;;;;;;;16.33;7.78;;;;;;;9.62;78.72;100137.66;4964990;28;20062;-95
2022/10/08 02:25:55;;;;;;;13.00;7.95;;;;;;;9.49;79.02;100122.66;4981223;28;20034;-94
2022/10/08 02:28:37;;;;;;;14.20;8.25;;;;;;;9.49;79.06;100128.03;4949210;28;20109;-94
2022/10/08 02:31:14;;;;;;;11.10;7.63;;;;;;;9.42;79.06;100133.56;4980974;28;20030;-93
2022/10/08 02:33:49;;;;;;;14.57;8.00;;;;;;;9.30;78.80;100117.50;4948607;28;20460;-94
2022/10/08 02:36:16;;;;;;;11.93;7.63;;;;;;;9.19;79.21;100112.19;4964291;28;20038;-94
2022/10/08 02:38:45;;;;;;;13.55;7.65;;;;;;;9.12;79.16;100116.91;4964205;28;20113;-94
2022/10/08 02:41:11;;;;;;;13.07;7.07;;;;;;;9.28;79.02;100121.50;4947610;28;20027;-94
2022/10/08 02:43:39;;;;;;;14.07;8.27;;;;;;;9.20;79.91;100136.13;4964185;28;20504;-93
2022/10/08 02:46:14;;;;;;;13.52;8.52;;;;;;;9.03;80.35;100128.03;4964358;28;20176;-94
2022/10/08 02:48:48;;;;;;;13.15;7.82;;;;;;;8.96;80.72;100118.47;4967235;28;20479;-93
2022/10/08 02:51:14;;;;;;;13.95;7.50;;;;;;;8.94;80.99;100115.19;4967497;28;20026;-93
2022/10/08 02:53:40;;;;;;;11.20;7.03;;;;;;;8.87;81.03;100123.41;4966543;28;20096;-94
2022/10/08 02:56:14;;;;;;;12.15;8.27;;;;;;;8.82;81.53;100117.91;4967266;28;20033;-94
2022/10/08 02:58:41;;;;;;;14.35;7.88;;;;;;;8.88;80.91;100127.72;4967944;28;20061;-94
2022/10/08 03:01:29;;;;;;;12.25;7.68;;;;;;;9.05;80.91;100141.22;4967686;28;20053;-94
2022/10/08 03:04:13;;;;;;;16.00;7.55;;;;;;;9.16;79.82;100142.22;4994119;28;20062;-93
2022/10/08 03:06:39;;;;;;;13.68;7.85;;;;;;;9.03;80.43;100127.22;4979606;28;20037;-93
2022/10/08 03:09:05;;;;;;;19.17;7.60;;;;;;;8.95;80.61;100116.84;4947082;28;20413;-92
2022/10/08 03:11:31;;;;;;;14.10;7.95;;;;;;;8.97;80.18;100118.22;4947691;28;20042;-93
2022/10/08 03:13:57;;;;;;;15.18;8.43;;;;;;;8.95;80.48;100114.16;4947157;28;20520;-93
2022/10/08 03:16:26;;;;;;;12.48;8.68;;;;;;;8.97;80.71;100117.44;4947751;28;20026;-92
2022/10/08 03:18:52;;;;;;;15.93;9.65;;;;;;;8.95;80.81;100114.16;4947580;28;20026;-93
2022/10/08 03:21:18;;;;;;;18.45;8.95;;;;;;;8.85;80.71;100098.66;4945563;28;20125;-93
2022/10/08 03:23:43;;;;;;;14.50;8.77;;;;;;;8.90;80.73;100098.75;4947211;28;20550;-93
2022/10/08 03:26:09;;;;;;;15.50;7.43;;;;;;;8.96;80.53;100116.59;4947046;28;20515;-93
2022/10/08 03:28:34;;;;;;;13.60;7.93;;;;;;;8.90;80.10;100107.63;4946839;28;20121;-93
2022/10/08 03:31:04;;;;;;;12.40;7.93;;;;;;;8.84;80.45;100108.59;4947014;28;20496;-93
2022/10/08 03:33:30;;;;;;;12.98;7.70;;;;;;;8.83;80.20;100100.78;4947037;28;20048;-93
2022/10/08 03:35:55;;;;;;;14.90;7.63;;;;;;;8.80;80.45;100109.28;4946986;28;20105;-95
2022/10/08 03:38:21;;;;;;;12.57;7.80;;;;;;;8.77;79.79;100113.28;4946918;28;20027;-94
2022/10/08 04:45:44;;;;;;;12.55;7.47;;;;;;;8.20;80.92;100107.75;4967580;28;20118;-94
2022/10/08 04:48:10;;;;;;;18.20;8.73;;;;;;;8.18;80.84;100113.34;4962443;28;20026;-94
2022/10/08 04:50:38;;;;;;;12.27;8.18;;;;;;;8.18;80.84;100099.13;4964023;28;20065;-95
2022/10/08 04:53:04;;;;;;;11.25;7.53;;;;;;;8.32;80.57;100107.72;4962658;28;20030;-94
2022/10/08 04:55:30;;;;;;;13.77;7.38;;;;;;;8.29;80.79;100107.16;4946315;28;20037;-94
2022/10/08 04:57:55;;;;;;;16.45;7.45;;;;;;;8.36;80.60;100112.38;4945729;28;20030;-93
2022/10/08 05:00:21;;;;;;;13.93;7.68;;;;;;;8.39;80.83;100117.28;4945874;28;20049;-94
2022/10/08 05:02:46;;;;;;;10.68;6.93;;;;;;;8.45;80.86;100120.94;4967833;28;20034;-94
2022/10/08 05:05:12;;;;;;;10.32;7.30;;;;;;;8.32;81.02;100105.03;4964676;28;20178;-95
2022/10/08 05:07:37;;;;;;;12.75;7.88;;;;;;;8.29;80.90;100098.28;4949114;28;20062;-95
2022/10/08 05:10:06;;;;;;;13.82;8.52;;;;;;;8.39;81.09;100111.94;4965572;28;20072;-95
2022/10/08 05:12:31;;;;;;;13.05;8.25;;;;;;;8.46;81.18;100111.81;4949052;28;20027;-94
2022/10/08 05:14:57;;;;;;;12.75;8.20;;;;;;;8.43;80.92;100101.56;4950309;28;20029;-95
2022/10/08 05:17:23;;;;;;;12.02;7.80;;;;;;;8.56;80.48;100106.69;4946876;28;20026;-96
2022/10/08 05:19:48;;;;;;;13.20;8.93;;;;;;;8.79;80.03;100135.31;4947748;28;20500;-96
2022/10/08 05:22:16;;;;;;;14.98;7.82;;;;;;;8.73;80.78;100106.75;4963176;28;20023;-93
2022/10/08 05:24:41;;;;;;;17.98;9.05;;;;;;;8.94;80.75;100128.63;4946591;28;20030;-95
2022/10/08 05:27:07;;;;;;;14.18;9.07;;;;;;;8.99;80.48;100132.25;4962282;28;20104;-95
2022/10/08 05:29:32;;;;;;;15.20;9.48;;;;;;;8.92;79.82;100107.38;4946220;28;20026;-95
2022/10/08 05:31:58;;;;;;;20.35;8.70;;;;;;;9.04;79.50;100123.47;4962122;28;20026;-96
2022/10/08 05:34:23;;;;;;;22.73;9.15;;;;;;;9.02;79.92;100122.88;4962405;28;20060;-95
2022/10/08 05:36:49;;;;;;;16.58;9.52;;;;;;;9.07;79.77;100114.94;4978214;28;20504;-96
2022/10/08 05:39:14;;;;;;;13.80;8.77;;;;;;;9.12;79.06;100109.63;4962671;28;20030;-96
2022/10/08 05:41:40;;;;;;;12.55;8.40;;;;;;;9.41;78.64;100137.31;4961256;28;20445;-92
2022/10/08 05:44:06;;;;;;;16.58;9.18;;;;;;;9.48;78.22;100127.22;4960271;28;20053;-91
2022/10/08 05:46:32;;;;;;;15.52;9.38;;;;;;;9.51;78.19;100109.78;4960459;28;20129;-91
2022/10/08 05:48:59;;;;;;;16.38;7.97;;;;;;;9.76;77.86;100135.47;4946298;28;20026;-92
2022/10/08 05:51:25;;;;;;;13.27;7.72;;;;;;;9.89;77.43;100138.63;4976815;28;20495;-92
2022/10/08 05:53:51;;;;;;;11.98;7.05;;;;;;;10.06;76.70;100151.28;4976560;28;20034;-92
2022/10/08 05:56:18;;;;;;;11.68;6.22;;;;;;;10.01;76.11;100130.50;4960677;28;20415;-92
2022/10/08 05:58:44;;;;;;;7.05;5.00;;;;;;;10.16;75.88;100147.94;4960166;28;20084;-91
2022/10/08 06:01:16;;;;;;;7.35;5.43;;;;;;;10.31;75.93;100158.94;4976326;28;20026;-90
2022/10/08 06:03:42;;;;;;;9.65;5.57;;;;;;;10.28;75.74;100144.06;4976979;28;20125;-93
2022/10/08 06:06:09;;;;;;;12.32;6.38;;;;;;;10.25;75.59;100135.66;4977392;28;20496;-94
2022/10/08 06:08:34;;;;;;;10.65;6.63;;;;;;;10.34;75.44;100152.28;4962137;28;20064;-93
2022/10/08 06:11:00;;;;;;;9.43;6.65;;;;;;;10.35;75.47;100151.19;4977321;28;20027;-93
2022/10/08 06:13:26;;;;;;;12.82;6.63;;;;;;;10.38;75.27;100156.09;4961368;28;20643;-93
2022/10/08 06:15:58;;;;;;;17.40;7.75;;;;;;;10.44;75.46;100157.81;4961233;28;20501;-92
2022/10/08 06:18:24;;;;;;;11.43;6.60;;;;;;;10.48;75.56;100146.28;4977885;28;20084;-93
2022/10/08 06:20:50;;;;;;;10.52;7.20;;;;;;;10.56;75.65;100141.50;4978021;28;20014;-92
2022/10/08 06:23:15;;;;;;;12.80;8.38;;;;;;;10.67;75.18;100145.97;4977292;28;20022;-92
2022/10/08 06:25:41;;;;;;;13.57;8.30;;;;;;;10.77;75.21;100147.97;4960643;28;20026;-92
2022/10/08 06:28:06;;;;;;;15.48;8.77;;;;;;;10.90;74.26;100142.22;4975452;28;20030;-94
2022/10/08 06:30:32;;;;;;;14.90;8.90;;;;;;;11.05;73.61;100137.00;4963830;28;20026;-93
2022/10/08 06:32:57;;;;;;;13.35;9.27;;;;;;;11.14;73.67;100140.06;4964336;28;20455;-95
2022/10/08 06:35:26;;;;;;;16.08;9.30;;;;;;;11.30;72.74;100135.66;4964057;28;20030;-94
2022/10/08 06:37:51;;;;;;;17.50;9.15;;;;;;;11.49;72.86;100150.38;4964180;28;20514;-94
2022/10/08 06:40:17;;;;;;;18.08;10.57;;;;;;;11.60;72.76;100162.09;4963895;28;20026;-94
2022/10/08 06:42:45;;;;;;;19.63;9.50;;;;;;;11.63;72.01;100145.41;4964579;28;20060;-94
2022/10/08 06:45:11;;;;;;;18.60;9.32;;;;;;;11.80;71.88;100149.84;4949363;28;20015;-93
2022/10/08 06:47:36;;;;;;;11.57;8.93;;;;;;;11.78;72.29;100149.28;4960649;28;20053;-93
2022/10/08 06:50:02;;;;;;;12.30;8.38;;;;;;;11.93;71.46;100139.47;4954859;28;20033;-94
2022/10/08 06:52:27;;;;;;;13.05;8.40;;;;;;;12.03;71.44;100152.22;4944425;28;20022;-93
2022/10/08 06:54:58;;;;;;;11.25;7.60;;;;;;;12.10;70.54;100135.81;4956777;28;20030;-96
2022/10/08 06:57:26;;;;;;;13.98;8.30;;;;;;;12.21;70.31;100137.50;5011692;28;20034;-96
2022/10/08 06:59:57;;;;;;;14.68;9.73;;;;;;;12.23;70.08;100121.84;4996139;28;20023;-95
2022/10/08 07:02:25;;;;;;;12.45;7.43;;;;;;;12.39;69.23;100122.75;4979622;28;20050;-96
2022/10/08 07:04:52;;;;;;;13.82;8.82;;;;;;;12.64;70.08;100142.88;4973078;28;20113;-96
2022/10/08 07:07:19;;;;;;;12.63;9.40;;;;;;;12.63;69.90;100127.72;4972269;28;20038;-95
2022/10/08 07:09:45;;;;;;;13.85;8.15;;;;;;;12.81;68.93;100131.88;4957360;28;20023;-96
2022/10/08 07:12:14;;;;;;;14.43;8.80;;;;;;;12.88;68.46;100127.03;4956384;28;20102;-95
2022/10/08 07:14:40;;;;;;;12.60;8.55;;;;;;;13.04;68.36;100117.06;4989450;28;20031;-96
2022/10/08 07:17:11;;;;;;;12.10;8.70;;;;;;;13.13;68.20;100118.97;4957397;28;20050;-96
2022/10/08 07:19:44;;;;;;;17.45;8.13;;;;;;;13.30;68.37;100132.31;4972842;28;20557;-96
2022/10/08 07:22:09;;;;;;;19.30;10.55;;;;;;;13.42;67.32;100131.25;4974243;28;20022;-96
2022/10/08 08:20:06;;;;;;;10.80;6.30;;;;;;;16.38;59.28;100114.72;5006104;28;20061;-95
2022/10/08 08:23:13;;;;;;;10.05;6.15;;;;;;;16.14;58.23;100082.06;4951541;29;20050;-96
2022/10/08 08:26:14;;;;;;;9.43;5.97;;;;;;;16.31;57.87;100078.91;4921805;28;20032;-96
2022/10/08 08:29:06;;;;;;;18.33;6.82;;;;;;;16.34;57.45;100064.75;4899860;29;20008;-96
2022/10/08 08:31:34;;;;;;;8.32;6.07;;;;;;;16.57;56.91;100071.25;4831044;29;20469;-94
2022/10/08 08:34:01;;;;;;;6.68;4.93;;;;;;;16.70;56.77;100077.88;4843850;29;20042;-94
2022/10/08 08:36:31;;;;;;;12.40;7.88;;;;;;;16.66;57.86;100068.69;4860021;29;20039;-96
2022/10/08 08:38:57;;;;;;;6.90;5.35;;;;;;;16.87;57.85;100072.81;4891851;29;20047;-95
2022/10/08 08:41:37;;;;;;;6.60;4.78;;;;;;;17.06;57.50;100078.25;4905155;29;20086;-96
2022/10/08 08:44:16;;;;;;;9.13;5.63;;;;;;;16.96;57.42;100060.16;4906841;29;20031;-93
2022/10/08 08:46:44;;;;;;;7.53;4.97;;;;;;;17.06;57.97;100064.66;4924288;29;20043;-94
2022/10/08 08:49:23;;;;;;;6.32;4.80;;;;;;;17.16;57.08;100055.50;4907444;29;20041;-95
2022/10/08 08:51:48;;;;;;;5.70;4.35;;;;;;;17.31;56.71;100051.75;4908178;29;20054;-94
2022/10/08 08:54:14;;;;;;;6.55;4.82;;;;;;;17.42;56.62;100058.63;4906526;29;20210;-94
2022/10/08 08:56:40;;;;;;;7.20;4.32;;;;;;;17.56;55.42;100069.59;4907208;29;20457;-94
2022/10/08 08:59:24;;;;;;;6.13;3.90;;;;;;;17.58;55.52;100040.16;4905497;29;20122;-93
2022/10/08 09:01:50;;;;;;;6.05;4.00;;;;;;;17.77;55.46;100053.69;4904443;29;20032;-94
2022/10/08 09:04:47;;;;;;;4.88;3.70;;;;;;;17.89;55.29;100039.63;4888293;29;20505;-94
2022/10/08 09:07:22;;;;;;;5.07;3.67;;;;;;;17.93;54.90;100032.47;4907659;29;20144;-94
2022/10/08 09:09:50;;;;;;;6.75;3.33;;;;;;;18.08;54.26;100048.53;4903662;29;20031;-94
2022/10/08 09:12:34;;;;;;;6.22;4.03;;;;;;;18.22;53.52;100064.06;4904409;29;20046;-93
2022/10/08 09:15:00;;;;;;;8.73;3.95;;;;;;;18.33;53.62;100060.84;4889610;29;20059;-93
2022/10/08 09:17:30;;;;;;;4.60;3.60;;;;;;;18.19;52.76;100040.94;4888229;29;20039;-94
2022/10/08 09:49:20;;;;;;;4.57;2.60;;;;;;;19.17;49.72;100007.75;5296682;22;20049;-92
2022/10/08 09:51:47;;;;;;;3.33;2.50;;;;;;;19.15;49.25;99990.03;4964519;28;20041;-93
2022/10/08 09:54:13;;;;;;;4.38;2.80;;;;;;;19.14;49.68;99989.25;4963625;28;20026;-93
2022/10/08 09:56:39;;;;;;;5.05;3.25;;;;;;;19.29;49.37;99984.53;4980479;28;20048;-94
2022/10/08 09:59:04;;;;;;;5.22;2.70;;;;;;;19.35;48.49;99988.75;4979729;28;20026;-93
2022/10/08 10:01:30;;;;;;;3.67;2.50;;;;;;;19.40;48.52;99983.13;4965611;28;20097;-93
2022/10/08 10:03:57;;;;;;;4.38;2.58;;;;;;;19.53;47.06;99981.47;4963946;28;20056;-93
2022/10/08 10:06:33;;;;;;;3.08;2.10;;;;;;;19.46;45.61;99976.41;4964811;28;20029;-92
2022/10/08 10:09:40;;;;;;;2.97;2.20;;;;;;;19.48;45.32;99974.19;4964568;28;20407;-94
2022/10/08 10:12:29;;;;;;;9.00;4.10;;;;;;;19.59;46.07;99989.19;4972986;28;20564;-93
2022/10/08 10:15:38;;;;;;;4.30;2.72;;;;;;;19.72;46.05;99976.59;4980669;28;20026;-94
2022/10/08 10:18:09;;;;;;;4.75;2.60;;;;;;;19.73;44.60;99959.06;4971515;28;20407;-93
2022/10/08 10:20:57;;;;;;;5.40;2.72;;;;;;;19.87;44.18;99969.91;4981225;28;20033;-94
2022/10/08 10:24:01;;;;;;;4.10;2.58;;;;;;;19.95;44.77;99966.38;4997645;28;20033;-93
2022/10/08 10:26:29;;;;;;;6.10;2.50;;;;;;;19.92;44.35;99949.81;4980606;28;20022;-94
2022/10/08 10:29:07;;;;;;;4.00;2.70;;;;;;;19.94;44.03;99948.41;4964160;28;20080;-93
2022/10/08 10:31:37;;;;;;;4.07;2.50;;;;;;;20.10;43.45;99939.75;4967348;28;20038;-92
2022/10/08 10:34:17;;;;;;;4.03;3.00;;;;;;;20.34;43.45;99934.63;4983109;28;20057;-92
2022/10/08 10:37:06;;;;;;;6.47;2.67;;;;;;;20.46;43.57;99946.88;4984071;28;20037;-92
2022/10/08 10:39:48;;;;;;;3.33;2.17;;;;;;;20.39;43.29;99934.47;4968461;28;20041;-92
2022/10/08 10:42:32;;;;;;;3.35;2.40;;;;;;;20.70;43.40;99944.50;4967258;28;20030;-93
2022/10/08 10:45:15;;;;;;;7.38;3.58;;;;;;;20.67;42.62;99936.13;4967321;28;20022;-93
2022/10/08 10:47:40;;;;;;;5.72;2.53;;;;;;;20.50;43.81;99917.75;4983271;28;20061;-93
2022/10/08 10:50:11;;;;;;;8.95;3.22;;;;;;;20.35;44.14;99927.22;4982840;28;20084;-93
2022/10/08 10:52:44;;;;;;;3.70;2.22;;;;;;;20.48;43.89;99934.50;4966843;28;20030;-92
2022/10/08 10:55:25;;;;;;;6.40;2.58;;;;;;;20.47;44.24;99937.53;4982270;28;20038;-93
2022/10/08 10:57:54;;;;;;;3.63;2.60;;;;;;;20.18;44.06;99900.66;4999100;28;20065;-93
2022/10/08 11:00:21;;;;;;;3.95;2.55;;;;;;;20.21;44.17;99927.38;4983007;28;20081;-96
2022/10/08 11:03:11;;;;;;;2.67;2.28;;;;;;;20.15;44.39;99924.00;4981967;28;20125;-93
2022/10/08 11:05:37;;;;;;;5.75;2.28;;;;;;;19.90;44.58;99906.41;4999003;28;20033;-93
2022/10/08 11:08:14;;;;;;;5.15;2.10;;;;;;;19.74;45.13;99897.84;4966628;28;20037;-94
2022/10/08 11:11:07;;;;;;;7.43;2.40;;;;;;;19.69;45.37;99913.53;4983894;28;20029;-94
2022/10/08 11:13:48;;;;;;;3.08;2.38;;;;;;;19.75;45.55;99909.56;4999249;28;20385;-93
2022/10/08 11:16:39;;;;;;;4.85;2.58;;;;;;;19.81;45.63;99894.66;4998902;28;20091;-93
2022/10/08 11:19:06;;;;;;;3.80;2.60;;;;;;;19.81;45.14;99885.66;4984269;28;20113;-94
2022/10/08 11:21:44;;;;;;;4.38;2.60;;;;;;;19.87;44.76;99876.19;4966721;28;20029;-92
2022/10/08 11:24:31;;;;;;;6.60;2.60;;;;;;;20.05;45.06;99887.97;4982223;28;20037;-93
2022/10/08 11:27:16;;;;;;;4.60;2.90;;;;;;;20.18;44.82;99879.59;5016312;28;20021;-93
2022/10/08 11:29:48;;;;;;;3.95;2.20;;;;;;;20.27;44.14;99885.06;4998985;28;20026;-93
2022/10/08 11:32:16;;;;;;;3.83;3.33;;;;;;;20.40;43.94;99866.91;4981846;28;20041;-93
2022/10/08 11:34:49;;;;;;;3.58;2.20;;;;;;;20.46;43.31;99857.41;4982405;28;20081;-93
2022/10/08 11:37:28;;;;;;;4.15;2.63;;;;;;;20.49;43.29;99854.03;4982922;28;20569;-93
2022/10/08 11:40:19;;;;;;;3.92;2.35;;;;;;;20.67;43.29;99856.75;4981880;28;20041;-92
2022/10/08 11:43:13;;;;;;;7.53;2.95;;;;;;;20.76;43.67;99866.56;4985537;28;20097;-93
2022/10/08 11:45:40;;;;;;;6.03;3.20;;;;;;;20.68;43.41;99853.72;4989704;28;20503;-93
2022/10/08 11:48:31;;;;;;;5.03;2.72;;;;;;;20.50;43.35;99847.44;4966623;28;20037;-93
2022/10/08 11:51:18;;;;;;;5.97;3.10;;;;;;;20.59;43.69;99842.78;4982355;28;20042;-94
2022/10/08 11:54:14;;;;;;;6.72;3.17;;;;;;;20.59;43.56;99842.78;4999037;28;20034;-94
2022/10/08 11:56:51;;;;;;;2.92;2.35;;;;;;;20.43;43.57;99821.69;4998658;28;20064;-92
2022/10/08 11:59:38;;;;;;;3.65;2.55;;;;;;;20.12;43.53;99817.19;4957507;28;20029;-92
2022/10/08 12:02:16;;;;;;;4.85;2.88;;;;;;;19.98;44.75;99814.59;4947293;28;20035;-93
2022/10/08 12:04:42;;;;;;;5.82;2.90;;;;;;;19.84;45.19;99814.78;4948386;28;20489;-92
2022/10/08 12:07:31;;;;;;;4.15;2.72;;;;;;;20.04;44.73;99826.19;4946608;28;20014;-92
2022/10/08 12:10:06;;;;;;;5.03;2.47;;;;;;;20.11;44.63;99810.94;4961837;28;20050;-92
2022/10/08 12:12:49;;;;;;;4.72;2.45;;;;;;;20.24;44.16;99817.34;4977943;28;20117;-93
2022/10/08 12:15:39;;;;;;;3.63;2.38;;;;;;;20.22;43.75;99792.25;4978039;28;20064;-93
2022/10/08 12:18:16;;;;;;;6.38;2.63;;;;;;;20.61;43.02;99809.63;4964564;28;20042;-93
2022/10/08 12:20:42;;;;;;;3.40;2.55;;;;;;;20.65;43.14;99785.97;4977565;28;20057;-92
2022/10/08 12:23:19;;;;;;;4.55;2.63;;;;;;;20.85;42.88;99802.81;4945117;28;20431;-93
2022/10/08 12:26:17;;;;;;;6.75;2.90;;;;;;;20.84;42.73;99798.47;4977230;28;20024;-92
2022/10/08 12:29:25;;;;;;;4.70;2.60;;;;;;;20.57;41.38;99789.50;4952119;28;20400;-93
2022/10/08 12:31:59;;;;;;;4.40;2.50;;;;;;;20.63;41.89;99798.34;4946644;28;20065;-93
2022/10/08 12:34:25;;;;;;;4.43;2.63;;;;;;;20.47;42.43;99781.63;4945344;28;20026;-92
2022/10/08 12:37:01;;;;;;;3.25;2.03;;;;;;;20.44;42.73;99790.47;4945574;28;20029;-92
2022/10/08 12:39:39;;;;;;;3.55;2.40;;;;;;;20.31;42.55;99797.72;4977831;28;20014;-93
2022/10/08 12:42:21;;;;;;;4.05;2.38;;;;;;;20.29;42.69;99792.56;4946189;28;20049;-92
2022/10/08 12:45:21;;;;;;;3.25;2.20;;;;;;;20.14;42.46;99798.53;4962427;28;20030;-93
2022/10/08 12:47:53;;;;;;;4.50;2.70;;;;;;;19.99;43.20;99786.97;4948730;28;20041;-93
2022/10/08 12:50:30;;;;;;;6.45;2.55;;;;;;;19.98;42.72;99782.63;4977752;28;20049;-92
2022/10/08 12:53:03;;;;;;;2.75;2.08;;;;;;;19.96;42.47;99781.31;4977399;28;20108;-93
2022/10/08 12:55:28;;;;;;;4.97;2.15;;;;;;;19.93;42.40;99777.31;4961875;28;20026;-93
2022/10/08 12:57:54;;;;;;;4.65;1.90;;;;;;;19.90;42.32;99755.28;4961322;28;20029;-93
2022/10/08 13:00:21;;;;;;;2.95;2.20;;;;;;;20.18;42.12;99788.56;4961607;28;20026;-92
2022/10/08 13:03:03;;;;;;;2.90;2.13;;;;;;;20.20;40.99;99758.97;4961500;28;20077;-93
2022/10/08 13:05:34;;;;;;;5.03;2.05;;;;;;;20.36;40.56;99775.69;4945333;28;20049;-93
2022/10/08 13:08:18;;;;;;;3.70;2.17;;;;;;;20.46;40.72;99766.31;4945853;28;20059;-92
2022/10/08 13:10:44;;;;;;;3.20;1.98;;;;;;;20.64;40.28;99761.66;4944833;28;20514;-93
2022/10/08 13:13:39;;;;;;;4.90;2.55;;;;;;;20.74;40.63;99770.31;4944861;28;20277;-93
2022/10/08 13:16:12;;;;;;;4.43;2.25;;;;;;;20.74;40.74;99748.41;4979130;28;20030;-93
2022/10/08 13:18:40;;;;;;;5.32;2.05;;;;;;;20.87;41.14;99754.00;4962822;28;20033;-92
2022/10/08 13:21:21;;;;;;;3.95;2.20;;;;;;;20.58;40.42;99753.59;4945335;28;20022;-93
2022/10/08 13:23:47;;;;;;;4.85;2.65;;;;;;;20.50;40.60;99731.72;4947122;28;20029;-92
2022/10/08 13:26:35;;;;;;;3.53;2.35;;;;;;;20.76;40.83;99759.84;4944896;28;20041;-93
2022/10/08 13:29:22;;;;;;;4.07;2.20;;;;;;;20.75;41.16;99755.50;4961061;28;20476;-96
2022/10/08 13:32:13;;;;;;;3.10;2.20;;;;;;;20.67;40.77;99750.88;4977118;28;20125;-94
2022/10/08 13:34:56;;;;;;;4.60;2.67;;;;;;;20.42;41.10;99733.38;4976147;28;20034;-94
2022/10/08 13:37:21;;;;;;;6.60;2.42;;;;;;;20.41;40.88;99748.16;4946570;28;20280;-93
2022/10/08 13:40:01;;;;;;;4.90;3.15;;;;;;;20.37;40.63;99748.00;4976760;28;20030;-93
2022/10/08 13:42:49;;;;;;;3.63;2.55;;;;;;;20.33;40.62;99744.31;4977922;28;20503;-93
2022/10/08 13:45:16;;;;;;;4.25;2.00;;;;;;;20.27;40.10;99734.66;4945018;28;20389;-94
2022/10/08 13:47:42;;;;;;;4.68;2.40;;;;;;;20.41;40.33;99739.94;4976664;28;20039;-93
2022/10/08 13:50:07;;;;;;;6.03;2.78;;;;;;;20.36;40.26;99729.19;4944256;28;20047;-93
2022/10/08 13:52:33;;;;;;;3.75;2.13;;;;;;;20.45;39.69;99729.97;4960689;28;20030;-93
2022/10/08 13:55:00;;;;;;;2.92;2.22;;;;;;;20.37;39.90;99717.91;4961493;28;20034;-93
2022/10/08 13:57:26;;;;;;;4.88;2.75;;;;;;;20.52;40.76;99729.47;4945876;28;20045;-92
2022/10/08 13:59:51;;;;;;;3.50;2.50;;;;;;;20.49;40.31;99713.72;4961148;28;20022;-92
2022/10/08 14:02:17;;;;;;;4.97;2.70;;;;;;;20.63;40.18;99730.75;4944198;28;20050;-92
2022/10/08 14:04:42;;;;;;;3.90;2.40;;;;;;;20.58;39.73;99715.31;4961673;28;20047;-93
2022/10/08 14:07:29;;;;;;;5.65;4.53;;;;;;;20.58;40.14;99709.03;4948590;28;20026;-93
2022/10/08 14:09:55;;;;;;;4.53;2.97;;;;;;;20.59;40.43;99716.13;4966679;28;20026;-92
2022/10/08 14:12:25;;;;;;;4.30;2.53;;;;;;;20.51;40.90;99712.25;4980267;28;20030;-92
2022/10/08 14:14:52;;;;;;;3.92;2.40;;;;;;;20.16;40.70;99695.91;4947734;28;20030;-92
2022/10/08 14:17:17;;;;;;;3.65;2.30;;;;;;;20.16;41.24;99701.38;4949011;28;20027;-93
2022/10/08 14:19:43;;;;;;;4.68;3.20;;;;;;;20.01;41.74;99709.31;4948683;28;20037;-92
2022/10/08 14:22:11;;;;;;;3.88;2.30;;;;;;;19.93;41.27;99705.44;4949141;28;20085;-93
2022/10/08 14:24:37;;;;;;;2.83;2.30;;;;;;;19.82;41.51;99696.78;4949165;28;20022;-93
2022/10/08 14:27:02;;;;;;;4.45;2.50;;;;;;;19.83;42.46;99697.56;4964904;28;20034;-92
2022/10/08 14:29:28;;;;;;;4.50;2.58;;;;;;;19.81;41.76;99697.09;4964759;28;20041;-95
2022/10/08 14:31:53;;;;;;;4.20;2.20;;;;;;;19.67;41.96;99694.47;4947763;28;20066;-93
2022/10/08 14:34:19;;;;;;;3.30;2.17;;;;;;;19.63;42.04;99696.25;4948330;28;20485;-93
2022/10/08 14:36:47;;;;;;;3.45;2.38;;;;;;;19.57;44.12;99701.09;4964211;28;20030;-93
2022/10/08 14:39:13;;;;;;;3.00;2.40;;;;;;;19.48;43.07;99698.31;4949202;28;20050;-93
2022/10/08 14:41:43;;;;;;;6.10;3.20;;;;;;;19.34;44.88;99690.31;4947828;28;20167;-92
2022/10/08 14:44:08;;;;;;;6.18;3.08;;;;;;;19.29;44.80;99687.72;4949121;28;20033;-93
2022/10/08 14:46:34;;;;;;;8.60;3.45;;;;;;;19.30;45.02;99696.69;4947529;28;20034;-93
2022/10/08 14:48:59;;;;;;;5.35;3.50;;;;;;;19.30;45.18;99692.06;4947682;28;20061;-93
2022/10/08 14:51:25;;;;;;;7.03;3.42;;;;;;;19.16;45.75;99680.47;4947606;28;20033;-93
2022/10/08 14:53:51;;;;;;;3.92;3.20;;;;;;;19.15;45.48;99684.31;4947810;28;20030;-93
2022/10/08 14:56:16;;;;;;;6.15;4.13;;;;;;;19.01;46.54;99680.91;4947638;28;20037;-93
2022/10/08 14:58:42;;;;;;;7.57;3.90;;;;;;;19.00;46.70;99696.47;4947225;28;20038;-93
2022/10/08 15:01:10;;;;;;;9.20;4.00;;;;;;;19.00;46.49;99701.13;4947610;28;20033;-94
2022/10/08 15:03:36;;;;;;;5.60;3.35;;;;;;;18.88;46.83;99682.63;4948211;28;20031;-94
2022/10/08 15:06:01;;;;;;;11.40;4.45;;;;;;;18.80;48.02;99691.59;4948260;28;20107;-93
2022/10/08 15:08:27;;;;;;;9.00;4.72;;;;;;;18.78;48.12;99700.06;4947117;28;20408;-93
2022/10/08 15:10:52;;;;;;;7.50;4.20;;;;;;;18.69;47.90;99691.03;4947513;28;20034;-93
2022/10/08 15:13:18;;;;;;;9.45;4.50;;;;;;;18.63;48.50;99690.38;4964684;28;20476;-93
2022/10/08 15:15:44;;;;;;;7.45;4.78;;;;;;;18.56;49.00;99692.75;4947748;28;20037;-94
2022/10/08 15:18:10;;;;;;;5.35;3.30;;;;;;;18.64;48.58;99710.28;4946617;28;20480;-93
2022/10/08 15:20:37;;;;;;;6.13;3.20;;;;;;;18.52;49.17;99699.94;4947347;28;20023;-93
2022/10/08 15:23:02;;;;;;;5.75;3.20;;;;;;;18.36;49.36;99691.34;4947499;28;20026;-92